Time;durP1;ratioP1;P1;durP2;ratioP2;P2;SDS_P1;SDS_P2;PMS_P1;PMS_P2;Temp;Humidity;BMP_temperature;BMP_pressure;BME280_temperature;BME280_humidity;BME280_pressure;Samples;Min_cycle;Max_cycle;Signal;HPM_P1;HPM_P2
2021/12/12 00:01:45;;;;;;;0.98;0.30;;;;;;;8.19;33.58;98531.94;4986001;28;20038;-76
2021/12/12 00:04:15;;;;;;;0.52;0.10;;;;;;;7.94;34.24;98484.84;4938263;28;20126;-77
2021/12/12 00:06:48;;;;;;;0.85;0.40;;;;;;;8.28;34.35;98539.72;4970009;28;20121;-76
2021/12/12 00:09:27;;;;;;;1.70;0.50;;;;;;;8.44;32.92;98528.91;4956330;28;20478;-76
2021/12/12 00:11:53;;;;;;;2.03;0.80;;;;;;;8.32;34.38;98513.56;4945709;28;20031;-75
2021/12/12 00:14:23;;;;;;;0.60;0.30;;;;;;;8.06;33.72;98498.50;4956618;28;20023;-76
2021/12/12 00:16:48;;;;;;;;;;;;;;;8.22;33.45;98550.63;4958958;28;20085;-76
2021/12/12 00:19:14;;;;;;;1.35;0.60;;;;;;;8.05;33.86;98538.31;4960195;28;19918;-76
2021/12/12 00:21:43;;;;;;;0.75;0.30;;;;;;;8.05;33.61;98546.09;4957819;28;20062;-76
2021/12/12 00:24:12;;;;;;;1.38;0.40;;;;;;;8.11;33.58;98553.31;4959926;28;20386;-76
2021/12/12 00:26:39;;;;;;;0.75;0.30;;;;;;;8.15;34.26;98546.94;4955094;28;20035;-76
2021/12/12 00:29:05;;;;;;;1.65;0.52;;;;;;;8.09;35.63;98552.63;4958489;28;20092;-76
2021/12/12 00:31:31;;;;;;;1.63;0.50;;;;;;;8.14;36.32;98555.66;4957359;28;20114;-75
2021/12/12 00:33:57;;;;;;;1.38;0.40;;;;;;;8.01;36.34;98547.28;4948990;28;20052;-76
2021/12/12 00:36:25;;;;;;;1.63;0.50;;;;;;;7.79;36.72;98528.38;4969781;28;20102;-75
2021/12/12 00:38:56;;;;;;;0.65;0.30;;;;;;;7.97;37.96;98567.44;4934551;28;20027;-76
2021/12/12 00:41:32;;;;;;;1.00;0.40;;;;;;;8.03;36.01;98568.69;4957247;28;20110;-75
2021/12/12 00:43:59;;;;;;;0.57;0.30;;;;;;;8.15;33.54;98570.22;4953187;28;20688;-76
2021/12/12 00:46:24;;;;;;;2.55;0.45;;;;;;;8.07;32.76;98559.72;4955315;28;20041;-76
2021/12/12 00:48:50;;;;;;;0.80;0.30;;;;;;;8.00;33.07;98566.38;4955599;28;20383;-76
2021/12/12 00:51:21;;;;;;;1.05;0.40;;;;;;;7.80;33.25;98534.38;4955434;28;21031;-76
2021/12/12 00:53:46;;;;;;;0.90;0.30;;;;;;;7.89;32.50;98531.84;4967758;28;20904;-76
2021/12/12 00:56:13;;;;;;;0.95;0.22;;;;;;;8.16;32.10;98574.47;4954232;28;20121;-75
2021/12/12 00:58:39;;;;;;;1.48;0.40;;;;;;;8.23;31.55;98572.16;4956962;28;20038;-75
2021/12/12 01:01:19;;;;;;;0.68;0.30;;;;;;;8.03;31.20;98527.25;4958339;28;20037;-76
2021/12/12 01:03:52;;;;;;;1.13;0.32;;;;;;;8.33;31.04;98565.25;4954395;28;20089;-75
2021/12/12 01:06:20;;;;;;;0.63;0.30;;;;;;;7.91;30.69;98505.81;4936427;28;20046;-73
2021/12/12 01:08:46;;;;;;;0.82;0.28;;;;;;;8.02;32.46;98526.44;4951151;28;20045;-74
2021/12/12 01:11:18;;;;;;;1.00;0.30;;;;;;;8.53;30.88;98578.31;4966524;28;20545;-74
2021/12/12 01:13:44;;;;;;;1.08;0.40;;;;;;;8.45;31.94;98572.03;4955298;28;20027;-74
2021/12/12 01:16:20;;;;;;;0.40;0.20;;;;;;;8.49;30.50;98579.50;4959903;28;20745;-73
2021/12/12 01:18:51;;;;;;;0.88;0.30;;;;;;;8.52;31.79;98574.88;4967290;28;20027;-75
2021/12/12 01:21:28;;;;;;;0.98;0.30;;;;;;;8.81;31.97;98567.16;4953366;28;20581;-75
2021/12/12 01:23:59;;;;;;;0.93;0.20;;;;;;;9.27;31.76;98571.84;4950881;28;20027;-75
2021/12/12 01:26:27;;;;;;;3.95;1.10;;;;;;;9.08;33.93;98578.66;4953341;28;20113;-75
2021/12/12 01:28:54;;;;;;;3.70;0.90;;;;;;;8.90;33.32;98588.06;4958595;28;20031;-75
2021/12/12 01:31:25;;;;;;;1.45;0.40;;;;;;;8.91;31.50;98595.72;4954639;28;20450;-76
2021/12/12 01:33:59;;;;;;;3.90;1.02;;;;;;;8.81;33.51;98580.13;4939911;28;20034;-75
2021/12/12 01:36:42;;;;;;;2.08;0.55;;;;;;;8.78;34.43;98559.69;4954930;28;20034;-75
2021/12/12 01:39:08;;;;;;;1.98;0.60;;;;;;;9.12;31.33;98579.22;4972878;28;20030;-75
2021/12/12 01:41:36;;;;;;;0.63;0.20;;;;;;;9.22;30.08;98574.84;4976958;28;20553;-75
2021/12/12 01:44:17;;;;;;;1.27;0.40;;;;;;;9.16;35.14;98581.41;4959142;28;20782;-76
2021/12/12 01:46:46;;;;;;;0.65;0.35;;;;;;;8.98;30.75;98575.22;4958054;28;20054;-76
2021/12/12 01:49:23;;;;;;;0.43;0.20;;;;;;;9.10;30.60;98573.34;4955759;28;20458;-76
2021/12/12 01:51:49;;;;;;;0.30;0.10;;;;;;;8.98;31.45;98549.31;4941148;28;20469;-76
2021/12/12 01:54:19;;;;;;;2.72;1.30;;;;;;;9.10;34.62;98594.09;4955846;28;20141;-76
2021/12/12 01:56:53;;;;;;;1.20;0.45;;;;;;;9.03;33.08;98589.47;4943942;28;20031;-76
2021/12/12 01:59:21;;;;;;;1.25;0.50;;;;;;;9.04;33.95;98588.50;4934972;28;20631;-75
2021/12/12 02:01:55;;;;;;;1.02;0.30;;;;;;;9.11;32.90;98593.13;4974243;28;20178;-75
2021/12/12 02:04:30;;;;;;;0.52;0.20;;;;;;;9.16;31.86;98591.78;4954931;28;20063;-75
2021/12/12 02:06:57;;;;;;;1.48;0.50;;;;;;;9.13;31.64;98593.84;4940950;28;20266;-75
2021/12/12 02:09:23;;;;;;;1.25;0.50;;;;;;;8.98;34.08;98594.22;4950279;28;20031;-75
2021/12/12 02:11:52;;;;;;;0.77;0.30;;;;;;;8.77;32.24;98603.88;4974526;28;20061;-75
2021/12/12 02:14:20;;;;;;;1.05;0.40;;;;;;;8.71;34.46;98589.69;4956894;28;20169;-75
2021/12/12 02:16:50;;;;;;;1.55;0.60;;;;;;;8.47;33.02;98577.06;4972926;28;20525;-75
2021/12/12 02:19:16;;;;;;;1.02;0.30;;;;;;;8.62;31.87;98606.84;4959134;28;20022;-76
2021/12/12 02:22:37;;;;;;;1.42;0.50;;;;;;;8.64;34.64;98625.66;4961137;28;20050;-75
2021/12/12 02:35:30;;;;;;;1.70;0.57;;;;;;;8.12;35.74;98640.41;4959812;28;20064;-75
2021/12/12 02:37:59;;;;;;;1.92;0.38;;;;;;;8.11;34.13;98619.84;4979582;28;20030;-75
2021/12/12 02:40:29;;;;;;;3.15;1.25;;;;;;;8.17;31.50;98632.28;4958506;28;20141;-75
2021/12/12 02:42:55;;;;;;;0.73;0.30;;;;;;;8.21;31.37;98636.25;4955769;28;20039;-74
2021/12/12 02:45:23;;;;;;;1.48;0.40;;;;;;;8.07;31.86;98627.88;4960024;28;20038;-75
2021/12/12 02:47:58;;;;;;;1.15;0.40;;;;;;;8.12;31.26;98639.59;4948621;28;20745;-75
2021/12/12 02:50:30;;;;;;;1.25;0.32;;;;;;;8.09;32.04;98630.34;4958651;28;20054;-75
2021/12/12 02:53:05;;;;;;;1.40;0.40;;;;;;;8.03;31.42;98630.81;4958307;28;20031;-75
2021/12/12 02:55:34;;;;;;;1.27;0.30;;;;;;;8.25;30.25;98645.38;4954625;28;20481;-74
2021/12/12 02:58:01;;;;;;;0.43;0.20;;;;;;;8.25;30.96;98637.63;4949866;28;20031;-75
2021/12/12 03:00:32;;;;;;;0.17;0.10;;;;;;;8.00;30.36;98592.25;4969221;28;20262;-74
2021/12/12 03:03:00;;;;;;;2.67;0.50;;;;;;;8.02;30.54;98608.47;4959692;28;20045;-75
2021/12/12 03:05:33;;;;;;;1.35;0.40;;;;;;;8.15;30.66;98631.59;4942223;28;20113;-75
2021/12/12 03:07:58;;;;;;;1.02;0.28;;;;;;;8.25;30.43;98637.63;4975101;28;20033;-75
2021/12/12 03:10:28;;;;;;;0.43;0.30;;;;;;;8.31;30.37;98651.84;4960219;28;20034;-74
2021/12/12 03:12:54;;;;;;;0.63;0.25;;;;;;;8.31;29.59;98644.06;4954729;28;20089;-74
2021/12/12 03:15:26;;;;;;;0.90;0.40;;;;;;;8.66;27.39;98648.88;4959484;28;20062;-74
2021/12/12 03:17:54;;;;;;;0.10;0.10;;;;;;;8.55;27.87;98631.66;4956852;28;20046;-74
2021/12/12 03:20:34;;;;;;;0.88;0.38;;;;;;;8.62;28.10;98642.31;4957054;28;20764;-74
2021/12/12 03:23:05;;;;;;;1.00;0.32;;;;;;;8.42;29.33;98638.84;4959710;28;20074;-74
2021/12/12 03:25:33;;;;;;;1.27;0.30;;;;;;;8.48;28.67;98645.25;4942546;28;20038;-74
2021/12/12 03:27:59;;;;;;;0.25;0.10;;;;;;;8.48;28.56;98656.44;4961907;28;20042;-74
2021/12/12 03:30:25;;;;;;;0.68;0.20;;;;;;;8.30;32.99;98663.16;4955444;28;20102;-74
2021/12/12 03:32:51;;;;;;;0.32;0.20;;;;;;;8.22;31.26;98656.84;4954669;28;20049;-74
2021/12/12 03:35:17;;;;;;;0.77;0.20;;;;;;;8.40;30.12;98674.38;4975904;28;20038;-74
2021/12/12 03:37:43;;;;;;;0.50;0.30;;;;;;;8.42;30.16;98682.88;4940741;28;20027;-74
2021/12/12 03:40:14;;;;;;;0.90;0.30;;;;;;;8.43;30.66;98676.72;4975980;28;20038;-74
2021/12/12 03:42:43;;;;;;;0.25;0.20;;;;;;;8.30;30.00;98670.91;4956743;28;20030;-74
2021/12/12 03:45:09;;;;;;;0.68;0.30;;;;;;;8.23;31.50;98662.81;4960290;28;20233;-74
2021/12/12 03:47:39;;;;;;;0.40;0.20;;;;;;;8.38;29.42;98684.88;4956003;28;20065;-74
2021/12/12 03:50:06;;;;;;;;;;;;;;;8.44;29.97;98701.72;4960585;28;20125;-74
2021/12/12 03:52:32;;;;;;;0.40;0.20;;;;;;;8.28;32.27;98678.81;4956918;28;19913;-74
2021/12/12 03:55:00;;;;;;;2.30;0.47;;;;;;;8.17;30.90;98679.69;4975880;28;20023;-74
2021/12/12 03:57:26;;;;;;;0.90;0.40;;;;;;;8.07;30.95;98684.03;4960361;28;20038;-74
2021/12/12 03:59:53;;;;;;;0.90;0.40;;;;;;;8.03;29.83;98638.59;4959146;28;20369;-75
2021/12/12 04:02:18;;;;;;;0.98;0.30;;;;;;;8.06;29.59;98646.13;4956893;28;20043;-75
2021/12/12 04:04:45;;;;;;;1.38;0.52;;;;;;;8.01;30.80;98643.91;4967025;28;20061;-75
2021/12/12 04:07:16;;;;;;;1.25;0.40;;;;;;;8.30;29.97;98682.09;4960391;28;20043;-74
2021/12/12 04:09:42;;;;;;;0.40;0.25;;;;;;;8.44;29.63;98702.53;4955751;28;20027;-74
2021/12/12 04:12:11;;;;;;;1.17;0.30;;;;;;;8.38;29.04;98689.25;4960215;28;20038;-75
2021/12/12 04:14:37;;;;;;;1.42;0.28;;;;;;;8.33;30.06;98702.56;4943484;28;20076;-75
2021/12/12 04:17:08;;;;;;;1.38;0.57;;;;;;;7.98;31.33;98659.72;4943893;28;20031;-74
2021/12/12 04:19:33;;;;;;;0.50;0.20;;;;;;;8.09;30.83;98695.88;4960297;28;20041;-75
2021/12/12 04:22:00;;;;;;;0.60;0.20;;;;;;;8.18;30.81;98696.09;4961255;28;20702;-75
2021/12/12 04:24:29;;;;;;;0.95;0.30;;;;;;;8.22;29.59;98700.88;4975622;28;20058;-75
2021/12/12 04:26:56;;;;;;;;;;;;;;;8.38;29.84;98708.19;4940772;28;20073;-75
2021/12/12 04:29:28;;;;;;;0.65;0.30;;;;;;;8.31;30.00;98714.03;4946649;28;19952;-75
2021/12/12 04:31:57;;;;;;;0.50;0.30;;;;;;;8.31;31.40;98724.38;4963561;28;20109;-75
2021/12/12 04:34:28;;;;;;;1.38;0.40;;;;;;;8.35;31.50;98731.75;4964078;28;20097;-75
2021/12/12 04:36:55;;;;;;;0.95;0.30;;;;;;;8.33;32.04;98714.72;4973572;28;20030;-75
2021/12/12 04:39:25;;;;;;;0.40;0.20;;;;;;;8.22;31.73;98726.78;4958283;28;20065;-75
2021/12/12 04:41:59;;;;;;;1.10;0.30;;;;;;;8.16;31.51;98716.09;4962574;28;20027;-75
2021/12/12 04:44:30;;;;;;;0.70;0.20;;;;;;;8.17;30.86;98715.16;4960960;28;20103;-75
2021/12/12 04:49:55;;;;;;;1.33;0.20;;;;;;;8.44;32.87;98722.44;4959835;28;20093;-74
2021/12/12 04:52:29;;;;;;;0.28;0.10;;;;;;;8.51;30.21;98702.84;4964940;28;20027;-74
2021/12/12 04:55:08;;;;;;;0.30;0.17;;;;;;;8.72;30.86;98720.91;4957689;28;20035;-75
2021/12/12 04:57:47;;;;;;;0.32;0.15;;;;;;;8.58;32.62;98729.03;4963181;28;20027;-75
2021/12/12 05:00:17;;;;;;;0.22;0.10;;;;;;;8.50;32.22;98708.13;4959320;28;20153;-75
2021/12/12 05:03:01;;;;;;;0.70;0.25;;;;;;;8.55;31.52;98726.72;4963426;28;20047;-75
2021/12/12 05:05:52;;;;;;;1.05;0.20;;;;;;;8.56;31.42;98729.19;4964035;28;20062;-75
2021/12/12 05:08:39;;;;;;;1.27;0.40;;;;;;;8.81;30.94;98707.16;4951602;28;20031;-75
2021/12/12 05:11:11;;;;;;;0.70;0.20;;;;;;;8.86;32.95;98711.97;4993417;28;20754;-75
2021/12/12 05:13:46;;;;;;;0.63;0.20;;;;;;;8.77;30.99;98717.94;4976340;28;20022;-75
2021/12/12 05:16:25;;;;;;;0.60;0.13;;;;;;;8.59;31.52;98677.06;4961520;28;20672;-75
2021/12/12 05:18:53;;;;;;;0.30;0.20;;;;;;;8.41;34.14;98666.47;4978331;28;20038;-75
2021/12/12 05:21:26;;;;;;;0.60;0.20;;;;;;;8.66;31.73;98709.31;4975632;28;20081;-75
2021/12/12 05:23:56;;;;;;;1.40;0.28;;;;;;;9.03;29.71;98713.13;4963534;28;20089;-76
2021/12/12 05:26:55;;;;;;;0.40;0.20;;;;;;;9.27;27.21;98709.34;4974972;28;20039;-75
2021/12/12 05:29:24;;;;;;;0.43;0.20;;;;;;;9.24;28.77;98715.63;4961279;28;20566;-75
2021/12/12 05:31:53;;;;;;;0.32;0.20;;;;;;;9.08;33.95;98707.53;4975462;28;20035;-76
2021/12/12 05:34:20;;;;;;;0.10;0.10;;;;;;;8.85;31.73;98676.63;4965086;28;20085;-76
2021/12/12 05:36:47;;;;;;;0.10;0.10;;;;;;;9.03;29.00;98680.25;4960493;28;20592;-76
2021/12/12 05:39:13;;;;;;;0.35;0.15;;;;;;;9.27;28.72;98709.34;4962734;28;20601;-75
2021/12/12 05:41:39;;;;;;;0.22;0.10;;;;;;;9.21;30.81;98727.09;4970692;28;20037;-76
2021/12/12 05:44:05;;;;;;;0.52;0.20;;;;;;;9.21;28.59;98734.06;4942196;28;20045;-75
2021/12/12 05:46:31;;;;;;;0.80;0.20;;;;;;;9.22;31.01;98725.34;4962431;28;20030;-76
2021/12/12 05:48:59;;;;;;;0.30;0.20;;;;;;;9.00;30.38;98700.44;4961315;28;20097;-76
2021/12/12 05:51:26;;;;;;;0.60;0.10;;;;;;;9.18;30.64;98742.09;4963565;28;20500;-76
2021/12/12 05:53:54;;;;;;;0.40;0.20;;;;;;;9.04;28.62;98740.72;4976571;28;21665;-76
2021/12/12 05:56:28;;;;;;;0.47;0.10;;;;;;;9.19;27.27;98751.53;4960541;28;20030;-76
2021/12/12 05:58:55;;;;;;;0.93;0.30;;;;;;;9.06;28.02;98740.59;4960289;28;20034;-76
2021/12/12 06:01:22;;;;;;;0.60;0.20;;;;;;;9.01;27.61;98734.00;4942011;28;20103;-75
2021/12/12 06:03:49;;;;;;;0.30;0.10;;;;;;;9.01;27.86;98759.13;4957375;28;20043;-75
2021/12/12 06:06:19;;;;;;;0.88;0.20;;;;;;;8.83;27.79;98715.66;4944340;28;20026;-75
2021/12/12 06:08:46;;;;;;;0.10;0.10;;;;;;;9.17;26.42;98751.66;4974416;28;20046;-75
2021/12/12 06:11:14;;;;;;;0.20;0.10;;;;;;;9.22;26.79;98749.50;4960913;28;20100;-76
2021/12/12 06:13:40;;;;;;;0.32;0.10;;;;;;;9.26;26.79;98760.44;4955355;28;20776;-76
2021/12/12 06:16:06;;;;;;;0.38;0.10;;;;;;;9.28;27.28;98778.47;4959300;28;20118;-76
2021/12/12 06:18:34;;;;;;;1.10;0.32;;;;;;;9.17;27.56;98766.41;4975844;28;20034;-76
2021/12/12 06:21:00;;;;;;;0.10;0.10;;;;;;;9.20;27.24;98769.56;4958868;28;20058;-76
2021/12/12 06:23:26;;;;;;;0.43;0.20;;;;;;;8.91;27.28;98724.53;4959475;28;20494;-77
2021/12/12 06:25:53;;;;;;;0.20;0.10;;;;;;;8.98;26.42;98765.41;4938992;28;20647;-76
2021/12/12 06:28:31;;;;;;;0.40;0.20;;;;;;;8.91;28.42;98756.50;4976945;28;20371;-76
2021/12/12 06:30:58;;;;;;;0.77;0.20;;;;;;;9.24;27.53;98802.06;4936825;28;20043;-76
2021/12/12 06:33:24;;;;;;;0.20;0.10;;;;;;;9.27;27.26;98792.38;4960656;28;20027;-76
2021/12/12 06:35:50;;;;;;;0.20;0.17;;;;;;;9.38;26.20;98808.69;4951315;28;20560;-75
2021/12/12 06:38:16;;;;;;;0.20;0.20;;;;;;;9.26;29.69;98809.72;4929353;28;20097;-76
2021/12/12 06:40:43;;;;;;;0.30;0.20;;;;;;;9.09;30.44;98803.41;4960391;28;20043;-76
2021/12/12 06:43:12;;;;;;;0.63;0.20;;;;;;;9.02;29.36;98818.66;4939930;28;20031;-75
2021/12/12 06:45:38;;;;;;;0.25;0.20;;;;;;;8.75;29.13;98764.75;4961754;28;20162;-76
2021/12/12 06:48:08;;;;;;;0.20;0.20;;;;;;;8.85;30.37;98801.91;4952161;28;20478;-75
2021/12/12 06:50:34;;;;;;;;;;;;;;;8.82;29.99;98815.13;4975305;28;20045;-76
2021/12/12 06:53:00;;;;;;;2.00;0.60;;;;;;;8.73;29.94;98812.50;4958875;28;20675;-76
2021/12/12 06:55:25;;;;;;;2.15;0.50;;;;;;;8.45;29.51;98778.47;4959839;28;20038;-76
2021/12/12 06:57:51;;;;;;;0.63;0.20;;;;;;;8.85;29.35;98839.97;4955967;28;20614;-75
2021/12/12 07:00:21;;;;;;;0.52;0.30;;;;;;;8.77;29.16;98837.22;4956200;28;20808;-75
2021/12/12 07:02:47;;;;;;;;;;;;;;;8.86;29.47;98841.63;4977590;28;20050;-75
2021/12/12 07:05:17;;;;;;;0.22;0.20;;;;;;;8.83;29.69;98847.91;4956983;28;19918;-75
2021/12/12 07:07:45;;;;;;;0.40;0.10;;;;;;;8.76;30.11;98853.69;4959944;28;20061;-76
2021/12/12 07:10:12;;;;;;;1.05;0.30;;;;;;;8.40;30.51;98807.34;4957395;28;20066;-76
2021/12/12 07:12:40;;;;;;;0.52;0.15;;;;;;;8.36;29.89;98812.88;4956223;28;20038;-76
2021/12/12 07:15:09;;;;;;;0.32;0.20;;;;;;;8.61;30.17;98851.44;4943243;28;20121;-76
2021/12/12 07:17:35;;;;;;;0.47;0.20;;;;;;;8.51;30.46;98853.16;4954442;28;20594;-76
2021/12/12 07:20:03;;;;;;;0.93;0.10;;;;;;;8.30;30.85;98824.59;4953510;28;20125;-76
2021/12/12 07:22:29;;;;;;;0.85;0.20;;;;;;;8.41;30.69;98841.84;4958687;28;20022;-76
2021/12/12 07:24:54;;;;;;;0.38;0.20;;;;;;;8.61;30.73;98871.34;4970878;28;20085;-76
2021/12/12 07:27:20;;;;;;;0.50;0.20;;;;;;;8.51;31.19;98873.88;4975689;28;20450;-76
2021/12/12 07:29:46;;;;;;;0.10;0.10;;;;;;;8.41;29.78;98845.25;4974592;28;20027;-76
2021/12/12 07:32:13;;;;;;;0.13;0.13;;;;;;;8.69;30.67;98884.53;4941873;28;21517;-76
2021/12/12 07:34:39;;;;;;;0.68;0.20;;;;;;;8.57;30.59;98898.47;4957060;28;20075;-76
2021/12/12 07:37:07;;;;;;;0.52;0.20;;;;;;;8.52;31.71;98906.59;4960876;28;20818;-76
2021/12/12 07:39:33;;;;;;;0.70;0.30;;;;;;;8.38;31.55;98904.31;4971206;28;20127;-77
2021/12/12 07:42:00;;;;;;;1.95;0.30;;;;;;;8.06;34.26;98923.22;4957570;28;20097;-76
2021/12/12 07:44:28;;;;;;;1.25;0.50;;;;;;;7.80;34.77;98933.84;4956423;28;20441;-74
2021/12/12 07:46:57;;;;;;;2.13;0.60;;;;;;;7.67;35.90;98931.38;4976278;28;20030;-74
2021/12/12 07:49:27;;;;;;;1.23;0.45;;;;;;;7.34;36.87;98890.81;4959237;28;20683;-75
2021/12/12 07:51:52;;;;;;;2.17;0.70;;;;;;;7.52;37.46;98945.50;4950650;28;20140;-75
2021/12/12 07:54:18;;;;;;;2.22;0.65;;;;;;;7.15;38.76;98950.03;4955980;28;20200;-75
2021/12/12 07:56:45;;;;;;;3.63;0.90;;;;;;;7.07;38.94;98950.63;4958507;28;20046;-75
2021/12/12 07:59:13;;;;;;;2.40;0.70;;;;;;;6.97;39.61;98958.22;4958832;28;20704;-76
2021/12/12 08:01:42;;;;;;;2.28;0.70;;;;;;;6.71;39.33;98909.25;4972272;28;20149;-74
2021/12/12 08:04:08;;;;;;;1.77;0.60;;;;;;;6.63;39.40;98906.44;4974999;28;20041;-75
2021/12/12 08:06:34;;;;;;;2.95;0.80;;;;;;;6.65;39.93;98921.81;4976012;28;20026;-75
2021/12/12 08:09:02;;;;;;;2.42;0.80;;;;;;;6.91;40.29;98964.66;4948454;28;20500;-76
2021/12/12 08:11:30;;;;;;;4.35;0.90;;;;;;;6.75;40.14;98946.03;4963474;28;20907;-75
2021/12/12 08:13:57;;;;;;;2.28;0.70;;;;;;;6.91;41.47;98984.53;4958532;28;20480;-75
2021/12/12 08:16:22;;;;;;;2.17;0.68;;;;;;;6.88;41.79;98987.31;4975672;28;20070;-75
2021/12/12 08:18:48;;;;;;;4.95;1.00;;;;;;;6.76;41.59;99001.16;4960862;28;20070;-75
2021/12/12 08:21:14;;;;;;;2.83;0.85;;;;;;;6.34;42.28;98942.94;4960389;28;20046;-75
2021/12/12 08:23:41;;;;;;;3.17;0.80;;;;;;;6.69;42.36;99004.16;4944640;28;20053;-76
2021/12/12 08:26:07;;;;;;;4.47;0.90;;;;;;;6.61;41.80;98977.22;4935509;28;20122;-74
2021/12/12 08:28:34;;;;;;;4.18;0.90;;;;;;;6.79;43.98;99014.69;4979124;28;20085;-75
2021/12/12 08:31:00;;;;;;;4.47;1.17;;;;;;;6.63;43.03;99008.97;4975325;28;20114;-75
2021/12/12 08:33:27;;;;;;;1.98;0.70;;;;;;;6.63;42.19;99020.13;4977643;28;20142;-75
2021/12/12 08:35:54;;;;;;;2.72;0.80;;;;;;;6.50;43.03;98988.34;4959650;28;20077;-76
2021/12/12 08:38:19;;;;;;;2.47;0.80;;;;;;;6.37;43.90;98975.50;4953829;28;20133;-74
2021/12/12 08:40:49;;;;;;;2.65;0.82;;;;;;;6.57;44.11;99023.16;4963076;28;20126;-76
2021/12/12 08:43:16;;;;;;;2.97;0.90;;;;;;;6.67;44.13;99038.81;4962237;28;20049;-74
2021/12/12 08:45:46;;;;;;;2.67;0.80;;;;;;;6.53;44.20;99043.22;4959331;28;20098;-74
2021/12/12 08:48:13;;;;;;;;;;;;;;;6.53;43.94;99042.38;4947407;28;20043;-75
2021/12/12 08:50:40;;;;;;;2.67;0.90;;;;;;;6.38;43.84;99046.88;4955853;28;19925;-75
2021/12/12 08:53:07;;;;;;;3.55;1.00;;;;;;;6.04;43.76;99001.91;4957721;28;20050;-74
2021/12/12 08:55:36;;;;;;;4.15;1.00;;;;;;;6.26;44.37;99047.72;4961906;28;20031;-75
2021/12/12 08:58:15;;;;;;;3.47;1.17;;;;;;;6.27;44.53;99052.78;4955417;28;20023;-76
2021/12/12 09:00:53;;;;;;;4.03;1.48;;;;;;;6.21;43.92;99042.06;4957600;28;20110;-75
2021/12/12 09:03:44;;;;;;;4.28;1.33;;;;;;;6.14;44.57;99051.97;4959619;28;20031;-75
2021/12/12 09:06:13;;;;;;;4.13;1.30;;;;;;;6.18;44.74;99063.75;4961601;28;20043;-74
2021/12/12 09:08:51;;;;;;;5.00;2.25;;;;;;;6.27;43.86;99078.59;4960093;28;20421;-75
2021/12/12 09:11:16;;;;;;;5.20;1.90;;;;;;;6.30;43.72;99077.59;4971799;28;20493;-75
2021/12/12 09:13:58;;;;;;;4.30;1.42;;;;;;;6.31;44.10;99074.88;4957021;28;20109;-75
2021/12/12 09:16:43;;;;;;;6.25;2.10;;;;;;;6.34;44.19;99072.09;4955163;28;20090;-74
2021/12/12 09:19:21;;;;;;;5.90;2.30;;;;;;;6.27;44.74;99083.75;4960518;28;20062;-73
2021/12/12 09:21:53;;;;;;;8.23;3.17;;;;;;;6.23;44.50;99073.78;4957022;28;20034;-72
2021/12/12 09:24:24;;;;;;;6.47;2.80;;;;;;;5.93;45.19;99029.25;4954621;28;20552;-73
2021/12/12 09:26:54;;;;;;;5.75;2.53;;;;;;;6.32;43.71;99073.94;4960030;28;20130;-75
2021/12/12 09:29:36;;;;;;;6.13;2.47;;;;;;;6.28;44.83;99089.75;4950495;28;20994;-74
2021/12/12 09:32:04;;;;;;;6.32;2.90;;;;;;;6.08;44.43;99031.75;4954374;28;20027;-73
2021/12/12 09:34:38;;;;;;;6.40;2.78;;;;;;;6.38;44.62;99084.78;4959906;28;20042;-73
2021/12/12 09:37:15;;;;;;;6.32;2.88;;;;;;;6.39;44.60;99078.69;4962214;28;20053;-74
2021/12/12 09:39:53;;;;;;;6.82;2.80;;;;;;;6.32;44.88;99073.13;4971614;28;20101;-76
2021/12/12 09:42:48;;;;;;;5.47;2.35;;;;;;;6.40;44.87;99095.84;4941935;28;20058;-77
2021/12/12 09:45:46;;;;;;;5.75;2.17;;;;;;;6.41;44.98;99100.91;4959432;28;20062;-75
2021/12/12 09:51:46;;;;;;;5.15;2.45;;;;;;;6.61;44.74;99106.41;4939227;28;20149;-74
2021/12/12 09:54:27;;;;;;;6.50;3.00;;;;;;;6.59;44.34;99111.72;4956123;28;20027;-74
2021/12/12 09:57:05;;;;;;;8.50;2.80;;;;;;;6.70;44.91;99116.16;4951809;28;20031;-75
2021/12/12 09:59:56;;;;;;;6.38;2.25;;;;;;;6.78;44.21;99116.41;4959479;28;20030;-74
2021/12/12 10:02:26;;;;;;;5.25;2.10;;;;;;;6.93;41.63;99111.91;4974042;28;20170;-74
2021/12/12 10:05:22;;;;;;;5.38;2.30;;;;;;;6.33;42.69;99016.22;4961116;28;20117;-75
2021/12/12 10:08:12;;;;;;;6.20;2.40;;;;;;;6.98;40.72;99109.81;4957372;28;20085;-74
2021/12/12 10:11:01;;;;;;;6.47;2.67;;;;;;;6.81;39.94;99072.25;4961411;28;20038;-75
2021/12/12 10:13:42;;;;;;;5.30;1.90;;;;;;;7.09;38.98;99112.47;4957185;28;20041;-76
2021/12/12 10:16:31;;;;;;;5.72;2.30;;;;;;;7.13;40.02;99103.53;4952982;28;20085;-75
2021/12/12 10:19:04;;;;;;;7.78;2.70;;;;;;;6.74;39.58;99016.78;4956332;28;20114;-74
2021/12/12 10:21:40;;;;;;;5.75;2.30;;;;;;;7.24;39.48;99099.38;4976397;28;20033;-77
2021/12/12 10:24:05;;;;;;;5.60;2.33;;;;;;;6.78;38.80;99025.94;4957457;28;20068;-77
2021/12/12 10:26:39;;;;;;;6.50;2.45;;;;;;;7.26;37.92;99095.72;4961258;28;20396;-75
2021/12/12 10:29:26;;;;;;;5.47;2.88;;;;;;;7.33;37.48;99103.88;4952028;28;20117;-73
2021/12/12 10:31:55;;;;;;;5.15;2.10;;;;;;;7.40;37.78;99106.84;4961743;28;20026;-74
2021/12/12 10:34:26;;;;;;;5.15;2.50;;;;;;;7.17;38.43;99067.94;4957113;28;20027;-76
2021/12/12 10:37:03;;;;;;;5.60;2.50;;;;;;;7.36;39.52;99108.81;4960601;28;20033;-74
2021/12/12 10:39:35;;;;;;;5.38;2.20;;;;;;;7.45;38.72;99110.75;4955564;28;20122;-68
2021/12/12 10:42:08;;;;;;;5.60;2.35;;;;;;;7.47;38.53;99108.88;4955799;28;20029;-69
2021/12/12 10:44:49;;;;;;;5.13;2.05;;;;;;;7.28;38.62;99072.34;4944227;28;20393;-68
2021/12/12 10:47:30;;;;;;;5.75;2.40;;;;;;;7.55;38.66;99125.59;4950771;28;20030;-68
2021/12/12 10:50:21;;;;;;;4.50;2.25;;;;;;;7.25;39.69;99077.75;4977224;28;20033;-67
2021/12/12 10:52:47;;;;;;;5.60;2.63;;;;;;;7.50;39.68;99134.53;4933697;28;20046;-64
2021/12/12 10:55:17;;;;;;;5.55;2.42;;;;;;;7.57;38.82;99119.34;4951809;28;20553;-65
2021/12/12 10:57:46;;;;;;;5.55;2.38;;;;;;;7.64;38.81;99128.31;4961906;28;20069;-65
2021/12/12 11:00:22;;;;;;;5.78;2.40;;;;;;;7.70;39.04;99119.25;4942802;28;20041;-65
2021/12/12 11:03:01;;;;;;;5.65;2.67;;;;;;;7.75;38.05;99117.16;4959933;28;20049;-64
2021/12/12 11:05:31;;;;;;;5.45;2.63;;;;;;;7.83;37.88;99121.75;4957018;28;20108;-65
2021/12/12 11:08:25;;;;;;;5.95;2.20;;;;;;;7.87;37.37;99118.84;4941152;28;20023;-65
2021/12/12 11:10:52;;;;;;;4.53;2.03;;;;;;;7.93;37.15;99120.16;4974306;28;20063;-67
2021/12/12 11:13:22;;;;;;;5.50;2.20;;;;;;;7.91;37.72;99116.84;4952977;28;20172;-66
2021/12/12 11:15:58;;;;;;;7.65;2.22;;;;;;;7.67;37.82;99078.09;4957073;28;20082;-66
2021/12/12 11:18:57;;;;;;;5.53;2.28;;;;;;;8.03;37.47;99117.69;4958922;28;20113;-65
2021/12/12 11:21:55;;;;;;;5.15;2.25;;;;;;;8.01;37.11;99114.38;4930352;28;20041;-65
2021/12/12 11:24:30;;;;;;;5.68;2.50;;;;;;;7.84;37.23;99090.59;4943795;28;20034;-65
2021/12/12 11:27:09;;;;;;;7.28;3.00;;;;;;;8.09;37.34;99122.41;4961130;28;20121;-65
2021/12/12 11:29:42;;;;;;;9.73;3.92;;;;;;;7.92;36.99;99084.00;4958037;28;20033;-64
2021/12/12 11:32:16;;;;;;;5.80;2.45;;;;;;;8.08;37.12;99113.81;4960280;28;20023;-64
2021/12/12 11:34:48;;;;;;;5.10;2.25;;;;;;;8.15;36.82;99111.56;4973824;28;20070;-63
2021/12/12 11:37:50;;;;;;;5.07;2.42;;;;;;;8.21;36.86;99121.50;4962240;28;20069;-63
2021/12/12 11:40:40;;;;;;;5.22;2.25;;;;;;;8.26;36.46;99111.56;4961086;28;20047;-63
2021/12/12 11:43:41;;;;;;;5.07;2.10;;;;;;;8.32;36.99;99115.47;4977479;28;20113;-64
2021/12/12 11:46:19;;;;;;;4.07;1.70;;;;;;;8.04;36.16;99062.38;4948755;28;20200;-63
2021/12/12 11:48:53;;;;;;;4.88;1.95;;;;;;;8.34;35.88;99110.16;4979224;28;20088;-65
2021/12/12 11:51:31;;;;;;;4.88;2.00;;;;;;;8.32;35.82;99115.47;4962990;28;20453;-64
2021/12/12 11:54:23;;;;;;;4.80;2.10;;;;;;;8.26;35.94;99103.00;4965381;28;20019;-64
2021/12/12 11:56:54;;;;;;;4.90;2.20;;;;;;;8.34;35.78;99108.41;4948246;28;20042;-63
2021/12/12 11:59:34;;;;;;;4.75;1.80;;;;;;;8.17;35.80;99073.44;4948881;28;20033;-64
2021/12/12 12:02:10;;;;;;;6.55;2.00;;;;;;;8.18;36.18;99071.69;4962812;28;20035;-64
2021/12/12 12:04:35;;;;;;;4.82;1.90;;;;;;;8.40;35.50;99102.75;4963084;28;20037;-64
2021/12/12 12:07:19;;;;;;;4.75;1.80;;;;;;;8.12;35.88;99054.00;4963077;28;20462;-64
2021/12/12 12:10:12;;;;;;;3.78;1.60;;;;;;;8.24;35.46;99069.41;4963687;28;20034;-65
2021/12/12 12:13:02;;;;;;;4.60;1.77;;;;;;;8.31;35.29;99080.16;4960928;28;20039;-64
2021/12/12 12:15:52;;;;;;;4.45;1.60;;;;;;;8.56;34.92;99096.41;4945222;28;20074;-63
2021/12/12 12:18:41;;;;;;;4.60;1.80;;;;;;;8.56;34.67;99093.81;4964517;28;20065;-64
2021/12/12 12:21:13;;;;;;;4.05;1.50;;;;;;;8.55;33.52;99102.53;4962957;28;20446;-65
2021/12/12 12:26:53;;;;;;;4.93;1.50;;;;;;;8.68;33.72;99099.81;4961086;28;20042;-65